Time;durP1;ratioP1;P1;durP2;ratioP2;P2;SDS_P1;SDS_P2;PMS_P1;PMS_P2;Temp;Humidity;BMP_temperature;BMP_pressure;BME280_temperature;BME280_humidity;BME280_pressure;Samples;Min_cycle;Max_cycle;Signal;HPM_P1;HPM_P2
2024/03/09 00:00:50;;;;;;;0.10;0.10;;;;;;;;;;4979303;28;20034;-92
2024/03/09 00:03:17;;;;;;;0.00;0.00;;;;;;;;;;5004712;28;20085;-93
2024/03/09 00:05:43;;;;;;;0.10;0.10;;;3.10;99.90;;;;;;4969662;28;20067;-92
2024/03/09 00:08:09;;;;;;;0.08;0.08;;;;;;;;;;4989538;28;20041;-92
2024/03/09 00:10:35;;;;;;;0.00;0.00;;;;;;;;;;4972010;28;20118;-91
2024/03/09 00:13:02;;;;;;;0.05;0.05;;;;;;;;;;4983513;28;20201;-92
2024/03/09 00:15:28;;;;;;;0.00;0.00;;;;;;;;;;4970360;28;20519;-92
2024/03/09 00:17:56;;;;;;;0.10;0.10;;;3.00;99.90;;;;;;4984462;28;20041;-92
2024/03/09 00:20:32;;;;;;;0.00;0.00;;;2.90;99.90;;;;;;4973244;28;20031;-92
2024/03/09 00:22:58;;;;;;;0.10;0.10;;;;;;;;;;4968781;28;20045;-92
2024/03/09 00:25:28;;;;;;;0.10;0.10;;;2.90;99.90;;;;;;4985212;28;20027;-93
2024/03/09 00:27:54;;;;;;;0.00;0.00;;;;;;;;;;4990939;28;20078;-93
2024/03/09 00:30:20;;;;;;;0.10;0.10;;;;;;;;;;5002458;28;20030;-93
2024/03/09 00:32:48;;;;;;;0.10;0.10;;;2.90;99.90;;;;;;4988818;28;20065;-92
2024/03/09 00:35:14;;;;;;;0.10;0.10;;;;;;;;;;4988720;28;20039;-92
2024/03/09 00:37:40;;;;;;;0.10;0.10;;;;;;;;;;4976394;28;20489;-93
2024/03/09 00:40:10;;;;;;;0.10;0.10;;;2.80;99.90;;;;;;5004985;28;20078;-92
2024/03/09 00:42:36;;;;;;;0.10;0.10;;;;;;;;;;4989527;28;20405;-92
2024/03/09 00:45:03;;;;;;;0.10;0.10;;;2.70;99.90;;;;;;4979679;28;20039;-92
2024/03/09 00:47:30;;;;;;;0.10;0.10;;;2.70;99.90;;;;;;4988965;28;20027;-91
2024/03/09 00:49:57;;;;;;;0.00;0.00;;;;;;;;;;4976180;28;20401;-93
2024/03/09 00:52:25;;;;;;;0.00;0.00;;;;;;;;;;4969717;28;20030;-92
2024/03/09 00:54:51;;;;;;;0.10;0.10;;;;;;;;;;4989683;28;20027;-92
2024/03/09 00:57:17;;;;;;;0.10;0.10;;;;;;;;;;4991416;28;20508;-92
2024/03/09 00:59:43;;;;;;;0.10;0.10;;;;;;;;;;4992343;28;20026;-93
2024/03/09 01:02:10;;;;;;;0.03;0.03;;;;;;;;;;4971701;28;20035;-92
2024/03/09 01:04:36;;;;;;;0.00;0.00;;;;;;;;;;4986966;28;20065;-92
2024/03/09 01:07:02;;;;;;;0.10;0.10;;;;;;;;;;4972305;28;20458;-93
2024/03/09 01:09:28;;;;;;;0.00;0.00;;;;;;;;;;4982815;28;20473;-92
2024/03/09 01:11:54;;;;;;;0.00;0.00;;;;;;;;;;4972353;28;20027;-92
2024/03/09 01:14:20;;;;;;;0.03;0.03;;;;;;;;;;4971252;28;20065;-92
2024/03/09 01:16:46;;;;;;;0.10;0.10;;;;;;;;;;4989896;28;20026;-94
2024/03/09 01:19:12;;;;;;;0.10;0.10;;;;;;;;;;5001379;28;20042;-91
2024/03/09 01:21:40;;;;;;;0.00;0.00;;;;;;;;;;4988795;28;20385;-91
2024/03/09 01:24:06;;;;;;;0.00;0.00;;;;;;;;;;4971072;28;20038;-92
2024/03/09 01:26:33;;;;;;;0.00;0.00;;;2.70;99.90;;;;;;4971270;28;20031;-92
2024/03/09 01:28:59;;;;;;;0.10;0.10;;;;;;;;;;4970962;28;20478;-92
2024/03/09 01:31:28;;;;;;;0.10;0.10;;;;;;;;;;4977148;28;20039;-92
2024/03/09 01:33:55;;;;;;;0.10;0.10;;;;;;;;;;4986448;28;20046;-92
2024/03/09 01:36:22;;;;;;;0.05;0.05;;;;;;;;;;4970199;28;20525;-91
2024/03/09 01:38:48;;;;;;;0.00;0.00;;;;;;;;;;4974591;28;20508;-93
2024/03/09 01:41:14;;;;;;;0.00;0.00;;;;;;;;;;5009384;28;20030;-92
2024/03/09 01:43:40;;;;;;;0.08;0.08;;;;;;;;;;4988297;28;20047;-92
2024/03/09 01:46:09;;;;;;;0.03;0.03;;;2.90;99.90;;;;;;4999322;28;20290;-92
2024/03/09 01:48:36;;;;;;;0.00;0.00;;;;;;;;;;4972350;28;20070;-93
2024/03/09 01:51:05;;;;;;;0.00;0.00;;;;;;;;;;5001097;28;20035;-93
2024/03/09 01:53:31;;;;;;;0.10;0.10;;;;;;;;;;4986229;28;20034;-92
2024/03/09 01:55:59;;;;;;;0.03;0.03;;;;;;;;;;4983717;28;20035;-92
2024/03/09 01:58:25;;;;;;;0.10;0.10;;;;;;;;;;4988916;28;20031;-91
2024/03/09 02:01:04;;;;;;;0.10;0.10;;;3.30;99.90;;;;;;4986816;28;20042;-91
2024/03/09 02:03:30;;;;;;;0.00;0.00;;;;;;;;;;4971727;28;20034;-92
2024/03/09 02:05:56;;;;;;;0.00;0.00;;;;;;;;;;4970797;28;20031;-92
2024/03/09 02:08:23;;;;;;;0.00;0.00;;;;;;;;;;4987913;28;20066;-92
2024/03/09 02:10:49;;;;;;;0.00;0.00;;;;;;;;;;4985454;28;20022;-92
2024/03/09 02:13:15;;;;;;;0.00;0.00;;;;;;;;;;4986517;28;20065;-92
2024/03/09 02:15:47;;;;;;;0.00;0.00;;;;;;;;;;4984887;28;20038;-92
2024/03/09 02:18:16;;;;;;;0.00;0.00;;;;;;;;;;4985194;28;20034;-92
2024/03/09 02:20:43;;;;;;;0.00;0.00;;;;;;;;;;5000914;28;20066;-92
2024/03/09 02:23:09;;;;;;;0.00;0.00;;;;;;;;;;4970465;28;20054;-92
2024/03/09 02:25:36;;;;;;;0.10;0.10;;;;;;;;;;4971374;28;20110;-92
2024/03/09 02:28:02;;;;;;;0.10;0.10;;;;;;;;;;4989486;28;20042;-91
2024/03/09 02:30:29;;;;;;;0.05;0.05;;;;;;;;;;4984177;28;20027;-93
2024/03/09 02:32:55;;;;;;;0.00;0.00;;;;;;;;;;4968821;28;20033;-91
2024/03/09 02:35:22;;;;;;;0.10;0.10;;;;;;;;;;4984967;28;20027;-93
2024/03/09 02:37:48;;;;;;;0.10;0.10;;;;;;;;;;4971978;28;20134;-93
2024/03/09 02:40:14;;;;;;;0.10;0.10;;;;;;;;;;5000174;28;20055;-92
2024/03/09 02:45:28;;;;;;;0.10;0.10;;;;;;;;;;4969129;28;20046;-91
2024/03/09 02:47:55;;;;;;;0.10;0.10;;;;;;;;;;4986115;28;20035;-93
2024/03/09 02:50:23;;;;;;;0.10;0.10;;;;;;;;;;4970913;28;20505;-92
2024/03/09 02:52:49;;;;;;;0.10;0.10;;;;;;;;;;4969339;28;20055;-92
2024/03/09 02:55:15;;;;;;;0.10;0.10;;;;;;;;;;4984956;28;20037;-92
2024/03/09 02:57:41;;;;;;;0.10;0.10;;;;;;;;;;5003333;28;20033;-93
2024/03/09 03:00:08;;;;;;;0.10;0.10;;;;;;;;;;5000007;28;20046;-92
2024/03/09 03:05:19;;;;;;;0.00;0.00;;;;;;;;;;4970863;28;20037;-92
2024/03/09 03:07:49;;;;;;;0.08;0.08;;;;;;;;;;5005709;28;20030;-92
2024/03/09 03:10:15;;;;;;;0.00;0.00;;;;;;;;;;4989378;28;20543;-92
2024/03/09 03:12:41;;;;;;;0.00;0.00;;;;;;;;;;4988446;28;20031;-93
2024/03/09 03:15:10;;;;;;;0.10;0.10;;;;;;;;;;4973726;28;20034;-92
2024/03/09 03:17:37;;;;;;;0.10;0.10;;;;;;;;;;4975490;28;20042;-92
2024/03/09 03:20:09;;;;;;;0.00;0.00;;;;;;;;;;4973829;28;20038;-91
2024/03/09 03:22:37;;;;;;;0.10;0.10;;;;;;;;;;4990843;28;20038;-93
2024/03/09 03:25:03;;;;;;;0.00;0.00;;;;;;;;;;4972878;28;20033;-92
2024/03/09 03:27:29;;;;;;;0.10;0.10;;;;;;;;;;5005122;28;20161;-92
2024/03/09 03:29:56;;;;;;;0.05;0.05;;;;;;;;;;4989412;28;20581;-92
2024/03/09 03:32:22;;;;;;;0.00;0.00;;;;;;;;;;4989867;28;20026;-92
2024/03/09 03:34:49;;;;;;;0.10;0.10;;;;;;;;;;4988095;28;20085;-93
2024/03/09 03:37:17;;;;;;;0.00;0.00;;;;;;;;;;4974396;28;20030;-92
2024/03/09 03:39:44;;;;;;;0.00;0.00;;;;;;;;;;5001930;28;20035;-92
2024/03/09 03:42:12;;;;;;;0.00;0.00;;;;;;;;;;4988349;28;20043;-93
2024/03/09 03:44:39;;;;;;;0.10;0.10;;;;;;;;;;4987659;28;20043;-92
2024/03/09 03:47:05;;;;;;;0.10;0.10;;;;;;;;;;4995593;28;20030;-92
2024/03/09 03:49:31;;;;;;;0.10;0.10;;;;;;;;;;4988765;28;20042;-91
2024/03/09 03:51:58;;;;;;;0.05;0.05;;;;;;;;;;4989754;28;20048;-92
2024/03/09 03:54:25;;;;;;;0.10;0.10;;;;;;;;;;4990825;28;20400;-93
2024/03/09 03:56:53;;;;;;;0.10;0.10;;;;;;;;;;4970043;28;20049;-92
2024/03/09 03:59:19;;;;;;;0.00;0.00;;;;;;;;;;4988436;28;20129;-92
2024/03/09 04:01:45;;;;;;;0.00;0.00;;;;;;;;;;4972614;28;20097;-93
2024/03/09 04:04:11;;;;;;;0.13;0.13;;;;;;;;;;4972397;28;20485;-93
2024/03/09 04:06:39;;;;;;;0.00;0.00;;;3.30;99.90;;;;;;5005025;28;20118;-92
2024/03/09 04:09:06;;;;;;;0.10;0.10;;;;;;;;;;4971571;28;20031;-92
2024/03/09 04:11:33;;;;;;;0.00;0.00;;;;;;;;;;4969689;28;20176;-92
2024/03/09 04:14:02;;;;;;;0.10;0.10;;;;;;;;;;4987916;28;20473;-92
2024/03/09 04:16:28;;;;;;;0.10;0.10;;;;;;;;;;4973504;28;20089;-93
2024/03/09 04:18:54;;;;;;;0.10;0.10;;;;;;;;;;4973174;28;20456;-93
2024/03/09 04:21:20;;;;;;;0.10;0.10;;;;;;;;;;4975599;28;20038;-93
2024/03/09 04:23:47;;;;;;;0.00;0.00;;;;;;;;;;4971421;28;20046;-93
2024/03/09 04:26:14;;;;;;;0.10;0.10;;;;;;;;;;4999192;28;20035;-92
2024/03/09 04:28:41;;;;;;;0.10;0.10;;;;;;;;;;4987013;28;20496;-92
2024/03/09 04:31:09;;;;;;;0.00;0.00;;;;;;;;;;4988403;28;20035;-92
2024/03/09 04:33:35;;;;;;;0.10;0.10;;;;;;;;;;4986724;28;20061;-92
2024/03/09 04:36:06;;;;;;;0.00;0.00;;;;;;;;;;4987270;28;20030;-93
2024/03/09 04:38:32;;;;;;;0.10;0.10;;;;;;;;;;5000807;28;20071;-93
2024/03/09 04:40:58;;;;;;;0.10;0.10;;;;;;;;;;4986037;28;20039;-93
2024/03/09 04:43:26;;;;;;;0.00;0.00;;;;;;;;;;4970738;28;20043;-92
2024/03/09 04:45:55;;;;;;;0.10;0.10;;;;;;;;;;4971499;28;20026;-92
2024/03/09 04:48:21;;;;;;;0.00;0.00;;;;;;;;;;4973300;28;20035;-95
2024/03/09 04:50:47;;;;;;;0.00;0.00;;;;;;;;;;4974850;28;20034;-94
2024/03/09 04:53:13;;;;;;;0.10;0.10;;;;;;;;;;4971532;28;20089;-92
2024/03/09 04:55:43;;;;;;;0.00;0.00;;;3.20;99.90;;;;;;4987487;28;20030;-93
2024/03/09 04:58:17;;;;;;;0.05;0.05;;;;;;;;;;4977847;28;20039;-95
2024/03/09 05:00:44;;;;;;;0.10;0.10;;;;;;;;;;4993145;28;20386;-95
2024/03/09 05:03:13;;;;;;;0.10;0.10;;;;;;;;;;5013134;28;20011;-96
2024/03/09 05:05:40;;;;;;;0.10;0.10;;;;;;;;;;4986972;28;20043;-91
2024/03/09 05:08:06;;;;;;;0.00;0.00;;;;;;;;;;4986654;28;20439;-92
2024/03/09 05:10:32;;;;;;;0.00;0.00;;;;;;;;;;5007385;28;20138;-94
2024/03/09 05:12:58;;;;;;;0.00;0.00;;;;;;;;;;4977113;28;21438;-92
2024/03/09 05:15:30;;;;;;;0.10;0.10;;;;;;;;;;4974956;28;20034;-92
2024/03/09 05:18:02;;;;;;;0.00;0.00;;;3.30;99.90;;;;;;4987736;28;20035;-93
2024/03/09 05:20:28;;;;;;;0.10;0.10;;;3.20;99.90;;;;;;4988379;28;20049;-91
2024/03/09 05:23:03;;;;;;;0.00;0.00;;;3.20;99.90;;;;;;4974750;28;20133;-91
2024/03/09 05:25:30;;;;;;;0.10;0.10;;;;;;;;;;4977758;28;20054;-92
2024/03/09 05:27:57;;;;;;;0.08;0.08;;;;;;;;;;4972542;28;20031;-92
2024/03/09 05:30:26;;;;;;;0.00;0.00;;;2.90;99.90;;;;;;4987175;28;20390;-93
2024/03/09 05:33:06;;;;;;;0.00;0.00;;;;;;;;;;4984813;28;20019;-93
2024/03/09 05:35:34;;;;;;;0.08;0.08;;;;;;;;;;4970633;28;20035;-91
2024/03/09 05:38:00;;;;;;;0.00;0.00;;;;;;;;;;4987234;28;20037;-93
2024/03/09 05:40:26;;;;;;;0.10;0.10;;;;;;;;;;4988307;28;20113;-92
2024/03/09 05:42:54;;;;;;;0.10;0.10;;;;;;;;;;4973560;28;20041;-92
2024/03/09 05:45:22;;;;;;;0.10;0.10;;;;;;;;;;4985542;28;20041;-93
2024/03/09 05:47:48;;;;;;;0.10;0.10;;;;;;;;;;4985343;28;20497;-92
2024/03/09 05:50:17;;;;;;;0.00;0.00;;;;;;;;;;4988628;28;20031;-92
2024/03/09 05:52:44;;;;;;;0.00;0.00;;;2.50;99.90;;;;;;4972002;28;20034;-92
2024/03/09 05:55:10;;;;;;;0.10;0.10;;;;;;;;;;4987180;28;20027;-92
2024/03/09 05:57:36;;;;;;;0.10;0.10;;;;;;;;;;5004833;28;20038;-92
2024/03/09 06:00:02;;;;;;;0.03;0.03;;;;;;;;;;4987595;28;20042;-92
2024/03/09 06:02:29;;;;;;;0.00;0.00;;;;;;;;;;4987347;28;20033;-92
2024/03/09 06:04:55;;;;;;;0.10;0.10;;;;;;;;;;4984343;28;20085;-92
2024/03/09 06:07:22;;;;;;;0.00;0.00;;;;;;;;;;4988691;28;20378;-93
2024/03/09 06:09:48;;;;;;;0.10;0.10;;;;;;;;;;4970931;28;20037;-93
2024/03/09 06:12:15;;;;;;;0.00;0.00;;;;;;;;;;4990707;28;20030;-92
2024/03/09 06:14:44;;;;;;;0.00;0.00;;;;;;;;;;5003168;28;20054;-92
2024/03/09 06:17:10;;;;;;;0.00;0.00;;;;;;;;;;4986427;28;20405;-93
2024/03/09 06:19:36;;;;;;;0.10;0.10;;;;;;;;;;4969630;28;20037;-91
2024/03/09 06:22:02;;;;;;;0.10;0.10;;;;;;;;;;4971109;28;20483;-92
2024/03/09 06:24:32;;;;;;;0.00;0.00;;;;;;;;;;4981434;28;20031;-92
2024/03/09 06:27:00;;;;;;;0.10;0.10;;;;;;;;;;4974308;28;20066;-93
2024/03/09 06:29:26;;;;;;;0.00;0.00;;;;;;;;;;4969803;28;20030;-92
2024/03/09 06:31:51;;;;;;;0.10;0.10;;;;;;;;;;4968903;28;20030;-93
2024/03/09 06:34:17;;;;;;;0.00;0.00;;;;;;;;;;4987026;28;20019;-92
2024/03/09 06:36:46;;;;;;;0.10;0.10;;;;;;;;;;4969277;28;20055;-92
2024/03/09 06:39:12;;;;;;;0.10;0.10;;;;;;;;;;4969527;28;20559;-92
2024/03/09 06:41:40;;;;;;;0.00;0.00;;;;;;;;;;4971866;28;20035;-93
2024/03/09 06:44:11;;;;;;;0.03;0.03;;;;;;;;;;4988040;28;20034;-92
2024/03/09 06:46:39;;;;;;;0.10;0.10;;;;;;;;;;5005491;28;20125;-92
2024/03/09 06:49:08;;;;;;;0.10;0.10;;;;;;;;;;4988514;28;20106;-91
2024/03/09 06:51:34;;;;;;;0.08;0.08;;;;;;;;;;4973693;28;20029;-92
2024/03/09 06:54:00;;;;;;;0.08;0.08;;;;;;;;;;4988413;28;20034;-92
2024/03/09 06:56:26;;;;;;;0.05;0.05;;;;;;;;;;4989767;28;20035;-93
2024/03/09 06:58:53;;;;;;;0.10;0.10;;;;;;;;;;4971827;28;20026;-92
2024/03/09 07:01:24;;;;;;;0.00;0.00;;;;;;;;;;4976135;28;20030;-92
2024/03/09 07:03:50;;;;;;;0.10;0.10;;;;;;;;;;4974161;28;20489;-92
2024/03/09 07:06:16;;;;;;;0.10;0.10;;;;;;;;;;4997507;28;20019;-92
2024/03/09 07:08:42;;;;;;;0.10;0.10;;;;;;;;;;4987716;28;20468;-92
2024/03/09 07:11:09;;;;;;;0.00;0.00;;;;;;;;;;4974161;28;20482;-92
2024/03/09 07:13:35;;;;;;;0.10;0.10;;;;;;;;;;4991082;28;20504;-92
2024/03/09 07:16:01;;;;;;;0.10;0.10;;;;;;;;;;4974459;28;20069;-92
2024/03/09 07:18:30;;;;;;;0.00;0.00;;;;;;;;;;4990251;28;20030;-92
2024/03/09 07:20:56;;;;;;;0.03;0.03;;;;;;;;;;4977005;28;20038;-93
2024/03/09 07:23:22;;;;;;;0.10;0.10;;;;;;;;;;4988874;28;20389;-91
2024/03/09 07:25:49;;;;;;;0.00;0.00;;;;;;;;;;4988092;28;20034;-94
2024/03/09 07:28:15;;;;;;;0.10;0.10;;;;;;;;;;4971150;28;20390;-92
2024/03/09 07:30:42;;;;;;;0.10;0.10;;;;;;;;;;4972744;28;20042;-92
2024/03/09 07:33:10;;;;;;;0.10;0.10;;;;;;;;;;4989722;28;20037;-92
2024/03/09 07:35:36;;;;;;;0.10;0.10;;;;;;;;;;4987607;28;20117;-91
2024/03/09 07:38:03;;;;;;;0.10;0.10;;;;;;;;;;4989191;28;20039;-93
2024/03/09 07:40:30;;;;;;;0.10;0.10;;;;;;;;;;4991486;28;20062;-92
2024/03/09 07:42:56;;;;;;;0.10;0.10;;;;;;;;;;4974145;28;20579;-93
2024/03/09 07:45:22;;;;;;;0.10;0.10;;;;;;;;;;4988438;28;20062;-92
2024/03/09 07:47:49;;;;;;;0.10;0.10;;;3.80;99.90;;;;;;4987885;28;20405;-92
2024/03/09 07:50:17;;;;;;;0.00;0.00;;;3.70;99.90;;;;;;4986600;28;20026;-94
2024/03/09 07:52:50;;;;;;;0.03;0.03;;;3.90;99.90;;;;;;4982194;28;20501;-92
2024/03/09 07:55:17;;;;;;;0.10;0.10;;;3.90;99.90;;;;;;4974142;28;20031;-92
2024/03/09 07:57:47;;;;;;;0.10;0.10;;;4.10;99.90;;;;;;4979052;28;20084;-92
2024/03/09 08:00:18;;;;;;;0.10;0.10;;;4.10;99.90;;;;;;4999575;28;20113;-92
2024/03/09 08:02:46;;;;;;;0.10;0.10;;;4.10;99.90;;;;;;4977101;28;20400;-93
2024/03/09 08:05:14;;;;;;;0.10;0.10;;;;;;;;;;4981100;28;20032;-93
2024/03/09 08:07:40;;;;;;;0.10;0.10;;;;;;;;;;4991412;28;20023;-92
2024/03/09 08:25:45;;;;;;;0.10;0.10;;;;;;;;;;4993819;28;20046;-93
2024/03/09 08:28:12;;;;;;;0.05;0.05;;;;;;;;;;4989369;28;20059;-93
2024/03/09 08:31:11;;;;;;;;;;;;;;;;;;;;;
2024/03/09 08:33:41;;;;;;;0.10;0.10;;;4.90;99.90;;;;;;4992680;28;20087;-93
2024/03/09 08:36:10;;;;;;;0.20;0.20;;;;;;;;;;4985317;28;20477;-93
2024/03/09 08:51:33;;;;;;;0.10;0.10;;;;;;;;;;4975397;28;20104;-88
2024/03/09 08:54:00;;;;;;;0.00;0.00;;;;;;;;;;4972893;28;20037;-90
2024/03/09 08:56:25;;;;;;;0.10;0.10;;;;;;;;;;4986145;28;20030;-90
2024/03/09 08:58:52;;;;;;;0.03;0.03;;;;;;;;;;5002610;28;20066;-91
2024/03/09 09:01:18;;;;;;;0.10;0.10;;;;;;;;;;4975975;28;20031;-90
2024/03/09 09:03:44;;;;;;;0.10;0.10;;;;;;;;;;5008446;28;20093;-89
2024/03/09 09:06:10;;;;;;;0.10;0.10;;;;;;;;;;4973391;28;20055;-90
2024/03/09 09:08:36;;;;;;;0.10;0.10;;;;;;;;;;4983564;28;20513;-90
2024/03/09 09:11:03;;;;;;;0.10;0.10;;;;;;;;;;4977800;28;20455;-91
2024/03/09 09:13:30;;;;;;;0.10;0.10;;;;;;;;;;4977672;28;20078;-91
2024/03/09 09:15:58;;;;;;;0.10;0.10;;;;;;;;;;4973823;28;20030;-89
2024/03/09 09:18:24;;;;;;;0.10;0.10;;;;;;;;;;4973000;28;20086;-89
2024/03/09 09:20:52;;;;;;;0.10;0.10;;;;;;;;;;4970166;28;20042;-88
2024/03/09 09:23:20;;;;;;;0.00;0.00;;;;;;;;;;4972357;28;20039;-88
2024/03/09 09:25:54;;;;;;;0.10;0.10;;;;;;;;;;4982954;28;20034;-87
2024/03/09 09:28:20;;;;;;;0.10;0.10;;;;;;;;;;4979943;28;20449;-89
2024/03/09 09:30:46;;;;;;;0.10;0.10;;;;;;;;;;5005075;28;20027;-89
2024/03/09 09:33:14;;;;;;;0.10;0.10;;;;;;;;;;5009590;28;20086;-90
2024/03/09 09:35:40;;;;;;;0.10;0.10;;;;;;;;;;5005614;28;20023;-90
2024/03/09 09:38:06;;;;;;;0.10;0.10;;;;;;;;;;4974697;28;20035;-90
2024/03/09 09:40:32;;;;;;;0.10;0.10;;;;;;;;;;4978174;28;20026;-90
2024/03/09 09:43:00;;;;;;;0.10;0.10;;;7.70;99.90;;;;;;4977934;28;20047;-90
2024/03/09 09:45:28;;;;;;;0.10;0.10;;;;;;;;;;4972564;28;20058;-90
2024/03/09 09:47:54;;;;;;;0.10;0.10;;;;;;;;;;4983132;28;20400;-90
2024/03/09 09:50:22;;;;;;;0.10;0.10;;;8.00;99.90;;;;;;4995390;28;20541;-88
2024/03/09 09:53:09;;;;;;;0.10;0.10;;;;;;;;;;4969140;28;20026;-89
2024/03/09 09:55:36;;;;;;;0.10;0.10;;;;;;;;;;4993134;28;20058;-89
2024/03/09 09:58:02;;;;;;;0.10;0.10;;;;;;;;;;4980017;28;20030;-90
2024/03/09 10:00:28;;;;;;;0.10;0.10;;;;;;;;;;4974359;28;20059;-90
2024/03/09 10:02:58;;;;;;;0.10;0.10;;;;;;;;;;4978661;28;20026;-91
2024/03/09 10:05:26;;;;;;;0.10;0.10;;;8.00;99.90;;;;;;4970218;28;20034;-89
2024/03/09 10:08:08;;;;;;;0.10;0.10;;;8.10;99.90;;;;;;4971061;28;20034;-90
2024/03/09 10:10:36;;;;;;;0.10;0.10;;;8.20;99.90;;;;;;4975637;28;20018;-89
2024/03/09 10:13:10;;;;;;;0.10;0.10;;;8.30;99.90;;;;;;4980417;28;20030;-91
2024/03/09 10:15:38;;;;;;;0.10;0.10;;;;;;;;;;4973946;28;20031;-88
2024/03/09 10:18:04;;;;;;;0.10;0.10;;;8.40;99.90;;;;;;4983984;28;20030;-90
2024/03/09 10:20:32;;;;;;;0.10;0.10;;;;;;;;;;5001634;28;20026;-90
2024/03/09 10:22:59;;;;;;;0.10;0.10;;;;;;;;;;4971387;28;20027;-91
2024/03/09 10:25:25;;;;;;;0.10;0.10;;;;;;;;;;4976017;28;20027;-91
2024/03/09 10:28:01;;;;;;;0.10;0.10;;;8.70;99.90;;;;;;4974389;28;20030;-91
2024/03/09 10:30:27;;;;;;;0.10;0.10;;;;;;;;;;4973409;28;20050;-91
2024/03/09 10:32:57;;;;;;;0.10;0.10;;;9.00;99.90;;;;;;4975995;28;20014;-90
2024/03/09 10:35:23;;;;;;;0.10;0.10;;;;;;;;;;4973175;28;20485;-91
2024/03/09 10:37:57;;;;;;;0.10;0.10;;;9.00;99.90;;;;;;4975868;28;20019;-91
2024/03/09 10:40:24;;;;;;;0.10;0.10;;;9.10;99.90;;;;;;4978550;28;20023;-91
2024/03/09 10:42:51;;;;;;;0.10;0.10;;;9.00;99.90;;;;;;4978575;28;20392;-91
2024/03/09 10:45:21;;;;;;;0.10;0.10;;;9.00;99.90;;;;;;4988540;28;20043;-90
2024/03/09 10:47:55;;;;;;;0.10;0.10;;;9.20;99.90;;;;;;4977738;28;20046;-91
2024/03/09 10:50:28;;;;;;;0.10;0.10;;;9.20;99.90;;;;;;4970062;28;20105;-89
2024/03/09 10:53:09;;;;;;;0.10;0.10;;;9.10;99.90;;;;;;4971130;28;20508;-91
2024/03/09 10:56:00;;;;;;;0.10;0.10;;;9.20;99.90;;;;;;4982919;28;20469;-90
2024/03/09 10:58:28;;;;;;;0.10;0.10;;;;;;;;;;4981079;28;20084;-91
2024/03/09 11:00:54;;;;;;;0.10;0.10;;;9.10;99.90;;;;;;4976491;28;20033;-91
2024/03/09 11:03:23;;;;;;;0.10;0.10;;;9.10;99.90;;;;;;4978888;28;20031;-90
2024/03/09 11:05:49;;;;;;;0.10;0.10;;;;;;;;;;4967170;28;20516;-91
2024/03/09 11:08:16;;;;;;;0.10;0.10;;;9.30;99.90;;;;;;4979222;28;20086;-91
2024/03/09 11:10:43;;;;;;;0.10;0.10;;;9.30;99.90;;;;;;4979728;28;20061;-91
2024/03/09 11:13:10;;;;;;;0.10;0.10;;;9.40;99.90;;;;;;4976603;28;20030;-91
2024/03/09 11:15:37;;;;;;;0.10;0.10;;;;;;;;;;4993840;28;20113;-89
2024/03/09 11:18:06;;;;;;;0.00;0.00;;;9.50;99.90;;;;;;4979445;28;20022;-91
2024/03/09 11:20:32;;;;;;;0.10;0.10;;;;;;;;;;4972925;28;20034;-90
2024/03/09 11:22:58;;;;;;;0.00;0.00;;;;;;;;;;4980607;28;20036;-90
2024/03/09 11:25:43;;;;;;;0.00;0.00;;;9.60;99.90;;;;;;4980947;28;20106;-90
2024/03/09 11:28:09;;;;;;;0.05;0.05;;;;;;;;;;4979986;28;20045;-90
2024/03/09 11:30:35;;;;;;;0.10;0.10;;;;;;;;;;4988392;28;20023;-91
2024/03/09 11:33:02;;;;;;;0.10;0.10;;;10.10;99.90;;;;;;4989036;28;20038;-90
2024/03/09 11:35:35;;;;;;;0.10;0.10;;;10.10;99.90;;;;;;4978702;28;20485;-89
2024/03/09 11:38:10;;;;;;;0.00;0.00;;;10.10;99.90;;;;;;4983896;28;20396;-90
2024/03/09 11:40:36;;;;;;;0.10;0.10;;;;;;;;;;4983806;28;20030;-91
2024/03/09 11:43:09;;;;;;;0.00;0.00;;;;;;;;;;4980701;28;20022;-91
2024/03/09 11:45:35;;;;;;;0.10;0.10;;;;;;;;;;4980799;28;20078;-89
2024/03/09 11:48:05;;;;;;;0.10;0.10;;;;;;;;;;4986559;28;20038;-90
2024/03/09 11:50:32;;;;;;;0.10;0.10;;;;;;;;;;4979496;28;20026;-94
2024/03/09 11:52:59;;;;;;;0.03;0.03;;;;;;;;;;4991304;28;20037;-92
2024/03/09 11:55:28;;;;;;;0.00;0.00;;;;;;;;;;5022217;28;20027;-92
2024/03/09 11:57:54;;;;;;;0.00;0.00;;;;;;;;;;5022463;28;20026;-92
2024/03/09 12:00:20;;;;;;;0.00;0.00;;;;;;;;;;4982742;28;20031;-91
2024/03/09 12:02:46;;;;;;;0.00;0.00;;;;;;;;;;5007563;28;20054;-92
2024/03/09 12:05:18;;;;;;;0.00;0.00;;;;;;;;;;4989834;28;20065;-91
2024/03/09 12:07:47;;;;;;;0.00;0.00;;;;;;;;;;4994881;28;20077;-93
2024/03/09 12:10:13;;;;;;;0.00;0.00;;;;;;;;;;5027346;28;20029;-91
2024/03/09 12:12:44;;;;;;;0.00;0.00;;;;;;;;;;5031847;28;20038;-92
2024/03/09 12:15:11;;;;;;;0.00;0.00;;;11.00;99.00;;;;;;4999823;28;20045;-91
2024/03/09 12:17:39;;;;;;;0.00;0.00;;;;;;;;;;4996946;28;20058;-92
2024/03/09 12:20:06;;;;;;;0.05;0.05;;;;;;;;;;4989018;28;20032;-92
2024/03/09 12:22:32;;;;;;;0.00;0.00;;;;;;;;;;5018048;28;20039;-91
2024/03/09 12:25:00;;;;;;;0.00;0.00;;;;;;;;;;5001790;28;20045;-90
2024/03/09 12:27:26;;;;;;;0.00;0.00;;;;;;;;;;5001541;28;20034;-90
2024/03/09 12:29:55;;;;;;;0.00;0.00;;;11.10;98.40;;;;;;5030144;28;20030;-92
2024/03/09 12:32:24;;;;;;;0.00;0.00;;;;;;;;;;4986204;28;20027;-91
2024/03/09 12:34:52;;;;;;;0.00;0.00;;;;;;;;;;5024689;28;20027;-92
2024/03/09 12:37:26;;;;;;;0.00;0.00;;;;;;;;;;5025722;28;20035;-91
2024/03/09 12:40:18;;;;;;;0.00;0.00;;;11.20;98.30;;;;;;5010082;28;20026;-91
2024/03/09 12:42:44;;;;;;;0.00;0.00;;;;;;;;;;5016616;28;20030;-90
2024/03/09 12:45:28;;;;;;;0.00;0.00;;;;;;;;;;4981251;28;20027;-92
2024/03/09 12:47:54;;;;;;;0.10;0.10;;;;;;;;;;4982407;28;20034;-93
2024/03/09 12:50:24;;;;;;;0.00;0.00;;;;;;;;;;4985464;28;20061;-92
2024/03/09 12:52:50;;;;;;;0.00;0.00;;;;;;;;;;5012958;28;20051;-92
2024/03/09 12:55:17;;;;;;;0.00;0.00;;;10.90;98.00;;;;;;5017957;28;20031;-93
2024/03/09 12:57:43;;;;;;;0.10;0.10;;;;;;;;;;4982828;28;20058;-93
2024/03/09 13:00:19;;;;;;;0.00;0.00;;;;;;;;;;4987518;28;20054;-93
2024/03/09 13:02:48;;;;;;;0.00;0.00;;;;;;;;;;4987955;28;20035;-93
2024/03/09 13:05:14;;;;;;;0.00;0.00;;;;;;;;;;4984972;28;20035;-93
2024/03/09 13:07:40;;;;;;;0.00;0.00;;;;;;;;;;4991087;28;20040;-93
2024/03/09 13:10:07;;;;;;;0.08;0.08;;;;;;;;;;4988526;28;20039;-93
2024/03/09 13:12:33;;;;;;;0.00;0.00;;;;;;;;;;4990039;28;20075;-93
2024/03/09 13:14:59;;;;;;;0.00;0.00;;;;;;;;;;4992083;28;20023;-93
2024/03/09 13:17:25;;;;;;;0.00;0.00;;;;;;;;;;4989621;28;20034;-94
2024/03/09 13:19:51;;;;;;;0.00;0.00;;;;;;;;;;4990114;28;20031;-93
2024/03/09 13:22:17;;;;;;;0.00;0.00;;;;;;;;;;5006142;28;20031;-92
2024/03/09 13:24:44;;;;;;;0.00;0.00;;;;;;;;;;4985375;28;20022;-92
2024/03/09 13:27:12;;;;;;;0.00;0.00;;;;;;;;;;5020237;28;20061;-92
2024/03/09 13:29:38;;;;;;;0.00;0.00;;;;;;;;;;4981290;28;20058;-93
2024/03/09 13:32:15;;;;;;;0.00;0.00;;;;;;;;;;4984624;28;20465;-93
2024/03/09 13:34:41;;;;;;;0.00;0.00;;;;;;;;;;4985248;28;20140;-92
2024/03/09 13:37:07;;;;;;;0.00;0.00;;;;;;;;;;5016642;28;20023;-93
2024/03/09 13:39:36;;;;;;;0.00;0.00;;;;;;;;;;5015893;28;20042;-92
2024/03/09 13:42:08;;;;;;;0.00;0.00;;;;;;;;;;5012263;28;20097;-92
2024/03/09 13:44:34;;;;;;;0.00;0.00;;;;;;;;;;5005983;28;20118;-91
2024/03/09 13:47:00;;;;;;;0.00;0.00;;;;;;;;;;4980712;28;20078;-93
2024/03/09 13:49:28;;;;;;;0.00;0.00;;;;;;;;;;4981287;28;20030;-92
2024/03/09 13:52:16;;;;;;;;;;;;;;;;;;;;;
2024/03/09 13:54:58;;;;;;;0.00;0.00;;;;;;;;;;4983791;28;20412;-92
2024/03/09 13:57:25;;;;;;;0.00;0.00;;;;;;;;;;4991084;28;20022;-93
2024/03/09 13:59:51;;;;;;;0.00;0.00;;;;;;;;;;4989779;28;20035;-93
2024/03/09 14:02:20;;;;;;;0.00;0.00;;;;;;;;;;4998294;28;20011;-93
2024/03/09 14:04:47;;;;;;;0.00;0.00;;;;;;;;;;5029871;28;20003;-92
2024/03/09 14:07:27;;;;;;;0.00;0.00;;;;;;;;;;5002812;28;20039;-93
2024/03/09 14:09:53;;;;;;;0.00;0.00;;;;;;;;;;4987576;28;20041;-91
2024/03/09 14:12:26;;;;;;;0.00;0.00;;;;;;;;;;5007283;28;20062;-91
2024/03/09 14:18:14;;;;;;;0.00;0.00;;;;;;;;;;4983410;28;20061;-92
2024/03/09 14:20:40;;;;;;;0.00;0.00;;;;;;;;;;4998419;28;20037;-93
2024/03/09 14:23:22;;;;;;;0.00;0.00;;;;;;;;;;4981820;28;20035;-92
2024/03/09 14:25:51;;;;;;;0.00;0.00;;;;;;;;;;5005960;28;20027;-93
2024/03/09 14:31:46;;;;;;;0.00;0.00;;;;;;;;;;4931127;29;20035;-91
2024/03/09 14:34:41;;;;;;;0.00;0.00;;;;;;;;;;4974038;28;20034;-90
2024/03/09 14:37:09;;;;;;;0.00;0.00;;;;;;;;;;5002132;28;20043;-90
2024/03/09 14:39:36;;;;;;;0.00;0.00;;;;;;;;;;5007525;28;20035;-90
2024/03/09 14:42:02;;;;;;;0.00;0.00;;;;;;;;;;4975513;28;20386;-91
2024/03/09 14:44:29;;;;;;;0.00;0.00;;;;;;;;;;4976589;28;20025;-91
2024/03/09 14:46:55;;;;;;;0.00;0.00;;;;;;;;;;4970430;28;20095;-90
2024/03/09 14:54:26;;;;;;;0.00;0.00;;;;;;;;;;4954822;28;20094;-91
2024/03/09 14:56:52;;;;;;;0.10;0.10;;;;;;;;;;4951614;28;20027;-91
2024/03/09 14:59:18;;;;;;;0.00;0.00;;;;;;;;;;4967076;28;20059;-90
2024/03/09 15:01:44;;;;;;;0.00;0.00;;;;;;;;;;4953231;28;20058;-91
2024/03/09 15:04:14;;;;;;;0.10;0.10;;;;;;;;;;4955387;28;20035;-90
2024/03/09 15:06:40;;;;;;;0.00;0.00;;;;;;;;;;4972722;28;20409;-91
2024/03/09 15:09:20;;;;;;;0.00;0.00;;;;;;;;;;4972389;28;20042;-91
2024/03/09 15:11:46;;;;;;;0.00;0.00;;;;;;;;;;4969155;28;20486;-91
2024/03/09 15:14:14;;;;;;;0.00;0.00;;;;;;;;;;4955970;28;20082;-91
2024/03/09 15:16:40;;;;;;;0.00;0.00;;;;;;;;;;4961406;28;20023;-91